createdAt,value
2023-01-18T00:01:32.395Z,12.7
2023-01-18T00:03:32.350Z,12.6
2023-01-18T00:05:32.475Z,12.6
2023-01-18T00:07:32.378Z,12.9
2023-01-18T00:09:32.346Z,12.7
2023-01-18T00:11:32.372Z,12.7
2023-01-18T00:13:32.391Z,12.8
2023-01-18T00:15:32.348Z,13
2023-01-18T00:17:32.306Z,13.2
2023-01-18T00:19:32.339Z,13
2023-01-18T00:21:32.316Z,13
2023-01-18T00:23:32.396Z,13
2023-01-18T00:25:32.332Z,13.1
2023-01-18T00:27:32.310Z,12.9
2023-01-18T00:29:32.306Z,13
2023-01-18T00:31:32.369Z,12.9
2023-01-18T00:33:32.310Z,12.9
2023-01-18T00:35:32.296Z,12.8
2023-01-18T00:37:32.366Z,12.7
2023-01-18T00:39:32.299Z,12.6
2023-01-18T00:41:32.331Z,12.8
2023-01-18T00:43:32.371Z,12.8
2023-01-18T00:45:32.357Z,12.7
2023-01-18T00:47:32.360Z,12.8
2023-01-18T00:49:32.290Z,13
2023-01-18T00:51:32.322Z,13.3
2023-01-18T00:53:32.293Z,13.4
2023-01-18T00:55:32.264Z,13.1
2023-01-18T00:57:32.302Z,13.3
2023-01-18T00:59:32.280Z,13.3
2023-01-18T01:01:32.337Z,13.3
2023-01-18T01:03:32.286Z,13.4
2023-01-18T01:05:32.258Z,13.4
2023-01-18T01:07:32.268Z,13.1
2023-01-18T01:09:32.292Z,13.3
2023-01-18T01:11:32.249Z,13.3
2023-01-18T01:13:32.298Z,13.5
2023-01-18T01:15:32.282Z,13.3
2023-01-18T01:17:32.274Z,13.4
2023-01-18T01:19:32.261Z,13.4
2023-01-18T01:21:32.293Z,13.4
2023-01-18T01:23:32.294Z,13.4
2023-01-18T01:25:32.242Z,13.4
2023-01-18T01:27:32.234Z,13.5
2023-01-18T01:29:32.273Z,13.6
2023-01-18T01:31:32.255Z,13.6
2023-01-18T01:33:32.231Z,13.8
2023-01-18T01:35:32.232Z,13.8
2023-01-18T01:37:32.263Z,13.9
2023-01-18T01:39:32.216Z,13.9
2023-01-18T01:41:32.264Z,13.6
2023-01-18T01:43:32.242Z,13.7
2023-01-18T01:45:32.306Z,13.8
2023-01-18T01:47:32.222Z,14
2023-01-18T01:49:32.541Z,13.8
2023-01-18T01:51:32.216Z,13.9
2023-01-18T01:53:32.302Z,13.8
2023-01-18T01:55:32.280Z,14.1
2023-01-18T01:57:32.204Z,13.9
2023-01-18T01:59:32.199Z,13.8
2023-01-18T02:01:32.305Z,13.8
2023-01-18T02:03:32.206Z,13.9
2023-01-18T02:05:32.164Z,14.1
2023-01-18T02:07:32.236Z,14.2
2023-01-18T02:09:32.191Z,14.2
2023-01-18T02:11:32.180Z,14.4
2023-01-18T02:13:33.256Z,14.4
2023-01-18T02:15:32.206Z,14.4
2023-01-18T02:17:32.200Z,14.3
2023-01-18T02:19:32.189Z,14.1
2023-01-18T02:21:32.160Z,14.1
2023-01-18T02:23:32.155Z,14.2
2023-01-18T02:25:32.142Z,14.1
2023-01-18T02:27:32.190Z,14.3
2023-01-18T02:29:32.303Z,14.1
2023-01-18T02:31:32.354Z,14.1
2023-01-18T02:33:38.170Z,14.2
2023-01-18T02:35:32.220Z,14.2
2023-01-18T02:37:32.310Z,14.2
2023-01-18T02:39:39.981Z,14.1
2023-01-18T02:41:32.148Z,14.4
2023-01-18T02:43:32.300Z,14.3
2023-01-18T02:45:34.346Z,14.2
2023-01-18T02:47:32.306Z,14.3
2023-01-18T02:49:32.177Z,14.3
2023-01-18T02:51:32.129Z,14.3
2023-01-18T02:53:32.148Z,14.3
2023-01-18T02:55:32.154Z,14.2
2023-01-18T02:57:32.125Z,14.5
2023-01-18T02:59:32.137Z,14.5
2023-01-18T03:01:32.200Z,14.5
2023-01-18T03:03:32.197Z,14.4
2023-01-18T03:05:32.126Z,14.4
2023-01-18T03:07:32.101Z,14.2
2023-01-18T03:09:32.176Z,14.3
2023-01-18T03:11:32.101Z,14.2
2023-01-18T03:13:32.123Z,14.5
2023-01-18T03:15:32.157Z,14.4
2023-01-18T03:17:32.084Z,14.6
2023-01-18T03:19:32.145Z,14.4
2023-01-18T03:21:32.153Z,14.5
2023-01-18T03:23:32.080Z,14.4
2023-01-18T03:25:32.181Z,14.6
2023-01-18T03:27:32.099Z,14.4
2023-01-18T03:29:32.119Z,14.3
2023-01-18T03:31:32.078Z,14.3
2023-01-18T03:33:32.088Z,14.4
2023-01-18T03:35:32.070Z,14.3
2023-01-18T03:37:32.101Z,14
2023-01-18T03:39:32.091Z,14.4
2023-01-18T03:41:32.084Z,14.5
2023-01-18T03:43:32.089Z,14.7
2023-01-18T03:45:32.070Z,14.7
2023-01-18T03:47:32.075Z,14.7
2023-01-18T03:49:32.393Z,14.4
2023-01-18T03:51:32.100Z,14.3
2023-01-18T03:53:32.076Z,14.5
2023-01-18T03:55:32.050Z,14.6
2023-01-18T03:57:32.067Z,14.5
2023-01-18T03:59:32.074Z,14.4
2023-01-18T04:01:32.154Z,14.4
2023-01-18T04:03:32.001Z,14.5
2023-01-18T04:05:32.059Z,14.5
2023-01-18T04:07:32.063Z,14.4
2023-01-18T04:09:32.053Z,14.3
2023-01-18T04:11:32.071Z,14.4
2023-01-18T04:13:32.077Z,14.2
2023-01-18T04:15:32.021Z,14.4
2023-01-18T04:17:32.033Z,14.3
2023-01-18T04:19:32.043Z,14.3
2023-01-18T04:21:32.025Z,14.6
2023-01-18T04:23:32.145Z,14.4
2023-01-18T04:25:32.018Z,14.4
2023-01-18T04:27:32.021Z,14.5
2023-01-18T04:29:32.038Z,14.7
2023-01-18T04:31:32.070Z,14.7
2023-01-18T04:33:32.130Z,14.7
2023-01-18T04:35:32.011Z,14.6
2023-01-18T04:37:32.026Z,14.5
2023-01-18T04:39:32.015Z,14.7
2023-01-18T04:41:32.015Z,14.6
2023-01-18T04:43:32.031Z,14.6
2023-01-18T04:45:31.983Z,14.5
2023-01-18T04:47:32.018Z,14.3
2023-01-18T04:49:31.984Z,14.6
2023-01-18T04:51:32.356Z,14.4
2023-01-18T04:53:32.006Z,14.6
2023-01-18T04:55:31.995Z,14.6
2023-01-18T04:57:32.004Z,14.5
2023-01-18T04:59:31.995Z,14.4
2023-01-18T05:01:32.035Z,14.4
2023-01-18T05:03:31.973Z,14.4
2023-01-18T05:05:31.971Z,14.4
2023-01-18T05:07:31.962Z,14.3
2023-01-18T05:09:31.950Z,14.3
2023-01-18T05:11:31.984Z,14.3
2023-01-18T05:13:31.962Z,14.4
2023-01-18T05:15:31.973Z,14.4
2023-01-18T05:17:31.976Z,14.5
2023-01-18T05:19:31.964Z,14.2
2023-01-18T05:21:31.963Z,14.2
2023-01-18T05:23:31.952Z,14.2
2023-01-18T05:25:31.955Z,14.2
2023-01-18T05:27:31.939Z,14.2
2023-01-18T05:29:31.993Z,14.2
2023-01-18T05:31:31.970Z,14.2
2023-01-18T05:33:31.939Z,14
2023-01-18T05:35:32.109Z,14.1
2023-01-18T05:37:31.939Z,14
2023-01-18T05:39:31.942Z,13.9
2023-01-18T05:41:31.947Z,14.1
2023-01-18T05:43:31.914Z,14
2023-01-18T05:45:31.948Z,13.9
2023-01-18T05:47:31.933Z,14
2023-01-18T05:49:31.945Z,13.8
2023-01-18T05:51:31.930Z,13.7
2023-01-18T05:53:31.919Z,13.8
2023-01-18T05:55:31.902Z,14
2023-01-18T05:57:31.920Z,13.9
2023-01-18T05:59:31.919Z,13.8
2023-01-18T06:01:32.034Z,13.8
2023-01-18T06:03:31.927Z,13.9
2023-01-18T06:05:31.935Z,13.9
2023-01-18T06:07:31.903Z,14
2023-01-18T06:09:31.932Z,13.8
2023-01-18T06:11:31.930Z,13.7
2023-01-18T06:13:31.877Z,13.7
2023-01-18T06:15:31.903Z,13.7
2023-01-18T06:17:31.898Z,13.6
2023-01-18T06:19:31.924Z,13.6
2023-01-18T06:21:31.900Z,13.6
2023-01-18T06:23:31.908Z,13.6
2023-01-18T06:25:31.902Z,13.6
2023-01-18T06:27:31.903Z,13.6
2023-01-18T06:29:31.886Z,13.6
2023-01-18T06:31:31.939Z,13.5
2023-01-18T06:33:33.129Z,13.6
2023-01-18T06:35:31.860Z,13.5
2023-01-18T06:37:31.848Z,13.5
2023-01-18T06:39:31.859Z,13.5
2023-01-18T06:41:31.890Z,13.4
2023-01-18T06:43:31.875Z,13.6
2023-01-18T06:45:31.913Z,13.5
2023-01-18T06:47:31.849Z,13.5
2023-01-18T06:49:31.824Z,13.4
2023-01-18T06:51:31.871Z,13.5
2023-01-18T06:53:31.860Z,13.5
2023-01-18T06:55:31.862Z,13.5
2023-01-18T06:57:32.025Z,13.3
2023-01-18T06:59:31.837Z,13.3
2023-01-18T07:01:31.983Z,13.3
2023-01-18T07:03:31.825Z,13.4
2023-01-18T07:05:31.875Z,13.3
2023-01-18T07:07:31.835Z,13.4
2023-01-18T07:09:31.836Z,13.3
2023-01-18T07:11:31.840Z,13.4
2023-01-18T07:13:31.833Z,13.4
2023-01-18T07:15:31.824Z,13.2
2023-01-18T07:17:31.787Z,13.2
2023-01-18T07:19:31.787Z,13.2
2023-01-18T07:21:31.803Z,13.2
2023-01-18T07:23:31.818Z,13.3
2023-01-18T07:25:31.805Z,13.3
2023-01-18T07:27:31.798Z,13.2
2023-01-18T07:29:31.805Z,13.3
2023-01-18T07:31:31.916Z,13.3
2023-01-18T07:33:31.786Z,13.3
2023-01-18T07:35:33.218Z,13.4
2023-01-18T07:37:31.802Z,13.5
2023-01-18T07:39:31.768Z,13.4
2023-01-18T07:41:31.845Z,13.4
2023-01-18T07:43:31.850Z,13.4
2023-01-18T07:45:31.750Z,13.3
2023-01-18T07:47:31.759Z,13.3
2023-01-18T07:49:32.035Z,13.4
2023-01-18T07:51:31.740Z,13.4
2023-01-18T07:53:31.751Z,13.4
2023-01-18T07:55:32.004Z,13.2
2023-01-18T07:57:31.750Z,13.2
2023-01-18T07:59:31.773Z,13.3
2023-01-18T08:01:31.906Z,13.5
2023-01-18T08:03:31.795Z,13.5
2023-01-18T08:05:31.758Z,13.4
2023-01-18T08:07:31.741Z,13.2
2023-01-18T08:09:31.854Z,13.2
2023-01-18T08:11:31.770Z,13.2
2023-01-18T08:13:31.755Z,13.3
2023-01-18T08:15:31.781Z,13.3
2023-01-18T08:17:31.735Z,13.2
2023-01-18T08:19:31.736Z,13.1
2023-01-18T08:21:31.762Z,13.2
2023-01-18T08:23:31.731Z,13.2
2023-01-18T08:25:31.756Z,13.1
2023-01-18T08:27:31.716Z,13.2
2023-01-18T08:29:31.727Z,13.3
2023-01-18T08:31:31.733Z,13.4
2023-01-18T08:33:31.709Z,13.2
2023-01-18T08:35:31.694Z,13.4
2023-01-18T08:37:31.729Z,13.2
2023-01-18T08:39:31.719Z,13.1
2023-01-18T08:41:31.687Z,13.2
2023-01-18T08:43:31.714Z,13.2
2023-01-18T08:45:31.702Z,13.2
2023-01-18T08:47:31.691Z,13.4
2023-01-18T08:49:31.680Z,13.4
2023-01-18T08:51:31.679Z,13.2
2023-01-18T08:53:31.701Z,13.2
2023-01-18T08:55:31.701Z,13.1
2023-01-18T08:57:31.666Z,13.3
2023-01-18T08:59:31.718Z,13.1
2023-01-18T09:01:31.806Z,13.1
2023-01-18T09:03:31.666Z,13.1
2023-01-18T09:05:31.670Z,13
2023-01-18T09:07:31.663Z,13.1
2023-01-18T09:09:31.667Z,12.9
2023-01-18T09:11:31.669Z,12.9
2023-01-18T09:13:31.671Z,13.1
2023-01-18T09:15:31.691Z,13
2023-01-18T09:17:31.649Z,13.1
2023-01-18T09:19:31.650Z,13
2023-01-18T09:21:31.649Z,13
2023-01-18T09:23:31.628Z,13.1
2023-01-18T09:25:31.656Z,13
2023-01-18T09:27:31.680Z,13
2023-01-18T09:29:31.654Z,13
2023-01-18T09:31:31.682Z,12.9
2023-01-18T09:33:37.343Z,13.2
2023-01-18T09:35:31.627Z,13
2023-01-18T09:37:31.655Z,13
2023-01-18T09:39:37.614Z,13.1
2023-01-18T09:41:31.617Z,13
2023-01-18T09:43:31.627Z,13
2023-01-18T09:45:31.601Z,13.1
2023-01-18T09:47:31.679Z,13
2023-01-18T09:49:31.617Z,13
2023-01-18T09:51:31.637Z,12.9
2023-01-18T09:53:31.624Z,13
2023-01-18T09:55:31.571Z,13
2023-01-18T09:57:31.606Z,13
2023-01-18T09:59:31.643Z,13
2023-01-18T10:01:31.736Z,12.9
2023-01-18T10:03:31.629Z,13.1
2023-01-18T10:05:31.637Z,13.1
2023-01-18T10:07:31.632Z,13.1
2023-01-18T10:09:31.616Z,13
2023-01-18T10:11:31.588Z,13
2023-01-18T10:13:31.610Z,13.1
2023-01-18T10:15:31.593Z,13
2023-01-18T10:17:31.603Z,12.9
2023-01-18T10:19:31.622Z,13.1
2023-01-18T10:21:33.034Z,13
2023-01-18T10:23:31.574Z,12.9
2023-01-18T10:25:31.575Z,12.9
2023-01-18T10:27:31.579Z,12.9
2023-01-18T10:29:31.566Z,12.7
2023-01-18T10:31:31.662Z,12.8
2023-01-18T10:33:31.553Z,12.9
2023-01-18T10:35:31.561Z,12.7
2023-01-18T10:37:31.542Z,12.7
2023-01-18T10:39:31.555Z,12.7
2023-01-18T10:41:31.583Z,12.8
2023-01-18T10:43:31.601Z,12.9
2023-01-18T10:45:31.585Z,12.8
2023-01-18T10:47:31.549Z,12.7
2023-01-18T10:49:31.564Z,12.7
2023-01-18T10:51:31.555Z,12.6
2023-01-18T10:53:31.531Z,12.8
2023-01-18T10:55:31.574Z,12.6
2023-01-18T10:57:31.604Z,12.6
2023-01-18T10:59:31.523Z,12.5
2023-01-18T11:01:31.675Z,12.5
2023-01-18T11:03:31.560Z,12.8
2023-01-18T11:05:31.541Z,12.9
2023-01-18T11:07:31.545Z,12.7
2023-01-18T11:09:31.504Z,12.6
2023-01-18T11:11:31.542Z,12.5
2023-01-18T11:13:31.520Z,12.7
2023-01-18T11:15:31.561Z,12.7
2023-01-18T11:17:31.634Z,12.8
2023-01-18T11:19:31.547Z,12.6
2023-01-18T11:21:31.578Z,12.8
2023-01-18T11:23:31.525Z,12.7
2023-01-18T11:25:31.532Z,12.6
2023-01-18T11:27:31.506Z,12.7
2023-01-18T11:29:31.539Z,12.6
2023-01-18T11:31:31.597Z,12.6
2023-01-18T11:33:31.435Z,12.7
2023-01-18T11:35:31.491Z,12.8
2023-01-18T11:37:31.504Z,12.8
2023-01-18T11:39:31.517Z,12.9
2023-01-18T11:41:31.486Z,12.7
2023-01-18T11:43:31.460Z,12.7
2023-01-18T11:45:31.476Z,12.6
2023-01-18T11:47:31.491Z,12.4
2023-01-18T11:49:31.517Z,12.4
2023-01-18T11:51:31.468Z,12.4
2023-01-18T11:53:31.472Z,12.6
2023-01-18T11:55:31.590Z,12.6
2023-01-18T11:57:31.480Z,12.6
2023-01-18T11:59:31.500Z,12.6
2023-01-18T12:01:31.437Z,12.6
2023-01-18T12:03:31.623Z,12.7
2023-01-18T12:05:31.465Z,12.7
2023-01-18T12:07:31.456Z,12.6
2023-01-18T12:09:31.495Z,12.6
2023-01-18T12:11:31.448Z,12.5
2023-01-18T12:13:31.464Z,12.5
2023-01-18T12:15:31.440Z,12.5
2023-01-18T12:17:31.510Z,12.4
2023-01-18T12:19:31.432Z,12.5
2023-01-18T12:21:31.434Z,12.4
2023-01-18T12:23:31.585Z,12.5
2023-01-18T12:25:31.451Z,12.3
2023-01-18T12:27:31.457Z,12.4
2023-01-18T12:29:31.420Z,12.4
2023-01-18T12:31:31.441Z,12.3
2023-01-18T12:35:31.477Z,12.3
2023-01-18T12:37:31.421Z,12.2
2023-01-18T12:39:31.441Z,12.2
2023-01-18T12:41:31.432Z,12.2
2023-01-18T12:43:31.439Z,12.4
2023-01-18T12:45:31.406Z,12.3
2023-01-18T12:47:31.434Z,12.3
2023-01-18T12:49:31.409Z,12.4
2023-01-18T12:51:31.410Z,12.3
2023-01-18T12:53:31.406Z,12.5
2023-01-18T12:55:31.483Z,12.3
2023-01-18T12:57:31.402Z,12.2
2023-01-18T12:59:32.575Z,12.2
2023-01-18T13:01:31.706Z,12.3
2023-01-18T13:03:31.374Z,12.4
2023-01-18T13:05:31.436Z,12.5
2023-01-18T13:07:31.529Z,12.5
2023-01-18T13:09:31.413Z,12.8
2023-01-18T13:11:31.397Z,12.7
2023-01-18T13:13:31.391Z,12.7
2023-01-18T13:15:31.438Z,12.9
2023-01-18T13:17:31.355Z,13
2023-01-18T13:19:31.392Z,12.9
2023-01-18T13:21:31.387Z,12.8
2023-01-18T13:23:31.334Z,13
2023-01-18T13:25:31.331Z,13
2023-01-18T13:27:31.379Z,13.1
2023-01-18T13:29:31.382Z,13.1
2023-01-18T13:31:31.498Z,13.2
2023-01-18T13:33:31.377Z,13.3
2023-01-18T13:35:31.339Z,13.3
2023-01-18T13:37:31.335Z,13.3
2023-01-18T13:39:31.351Z,13.3
2023-01-18T13:41:31.320Z,13.3
2023-01-18T13:43:31.339Z,13.3
2023-01-18T13:45:31.318Z,13.2
2023-01-18T13:47:31.414Z,13.3
2023-01-18T13:49:37.490Z,13.2
2023-01-18T13:51:31.325Z,13.1
2023-01-18T13:53:31.813Z,13.2
2023-01-18T13:55:31.351Z,13.2
2023-01-18T13:57:31.349Z,13.3
2023-01-18T13:59:31.323Z,13.5
2023-01-18T14:01:31.433Z,13.6
2023-01-18T14:03:31.441Z,13.5
2023-01-18T14:05:32.479Z,13.4
2023-01-18T14:07:31.341Z,13.5
2023-01-18T14:09:31.317Z,13.6
2023-01-18T14:11:31.331Z,13.9
2023-01-18T14:13:31.447Z,14.1
2023-01-18T14:15:31.304Z,13.8
2023-01-18T14:17:31.343Z,13.9
2023-01-18T14:19:31.300Z,13.8
2023-01-18T14:21:31.285Z,13.9
2023-01-18T14:23:31.286Z,13.8
2023-01-18T14:25:31.258Z,13.8
2023-01-18T14:27:31.287Z,14
2023-01-18T14:29:31.269Z,14.1
2023-01-18T14:31:32.671Z,14.2
2023-01-18T14:33:31.336Z,14.4
2023-01-18T14:35:31.313Z,14.5
2023-01-18T14:37:31.339Z,14.6
2023-01-18T14:39:31.279Z,14.5
2023-01-18T14:41:31.332Z,14.9
2023-01-18T14:43:31.279Z,15.4
2023-01-18T14:45:31.267Z,15.4
2023-01-18T14:47:31.282Z,15.2
2023-01-18T14:49:31.264Z,15.3
2023-01-18T14:51:31.265Z,15.3
2023-01-18T14:53:31.267Z,15.5
2023-01-18T14:55:31.459Z,15.5
2023-01-18T14:57:31.249Z,15.8
2023-01-18T14:59:31.257Z,15.9
2023-01-18T15:02:01.168Z,15.9
2023-01-18T15:03:31.307Z,16.3
2023-01-18T15:05:32.484Z,16.1
2023-01-18T15:07:31.326Z,16.3
2023-01-18T15:09:31.424Z,16.5
2023-01-18T15:11:31.241Z,16.6
2023-01-18T15:13:31.239Z,16.7
2023-01-18T15:15:31.211Z,16.6
2023-01-18T15:17:31.256Z,16.7
2023-01-18T15:19:31.281Z,16.9
2023-01-18T15:21:34.232Z,16.9
2023-01-18T15:23:31.235Z,17.1
2023-01-18T15:25:31.254Z,17.2
2023-01-18T15:27:52.600Z,17.3
2023-01-18T15:29:31.228Z,17.3
2023-01-18T15:31:31.240Z,17.5
2023-01-18T15:33:31.357Z,17.7
2023-01-18T15:35:31.240Z,17.9
2023-01-18T15:37:31.211Z,18.1
2023-01-18T15:39:56.424Z,17.8
2023-01-18T15:41:31.310Z,18
2023-01-18T15:43:32.543Z,18.3
2023-01-18T15:45:31.296Z,18.4
2023-01-18T15:47:32.674Z,18.4
2023-01-18T15:49:31.244Z,18.3
2023-01-18T15:51:31.201Z,18.6
2023-01-18T15:53:31.196Z,18.9
2023-01-18T15:55:31.228Z,18.7
2023-01-18T15:57:31.198Z,18.6
2023-01-18T15:59:31.236Z,18.6
2023-01-18T16:01:31.260Z,18.6
2023-01-18T16:03:31.157Z,18.8
2023-01-18T16:05:31.280Z,18.8
2023-01-18T16:07:31.329Z,19
2023-01-18T16:09:31.199Z,19
2023-01-18T16:11:31.276Z,19.2
2023-01-18T16:13:31.239Z,19.2
2023-01-18T16:15:32.985Z,19
2023-01-18T16:17:31.162Z,19.2
2023-01-18T16:19:31.134Z,19.1
2023-01-18T16:21:31.168Z,19.1
2023-01-18T16:23:31.136Z,19.3
2023-01-18T16:25:31.179Z,19.6
2023-01-18T16:27:31.127Z,19.6
2023-01-18T16:29:31.151Z,19.5
2023-01-18T16:31:31.187Z,19.6
2023-01-18T16:33:31.149Z,19.9
2023-01-18T16:35:31.131Z,19.8
2023-01-18T16:37:31.227Z,19.8
2023-01-18T16:39:31.149Z,19.7
2023-01-18T16:41:31.094Z,19.7
2023-01-18T16:43:31.272Z,19.8
2023-01-18T16:45:32.624Z,19.8
2023-01-18T16:47:31.151Z,19.9
2023-01-18T16:49:31.110Z,20.4
2023-01-18T16:51:31.128Z,20.4
2023-01-18T16:53:31.139Z,20.3
2023-01-18T16:55:31.147Z,20.5
2023-01-18T16:57:31.089Z,20.5
2023-01-18T16:59:31.120Z,20.6
2023-01-18T17:01:31.254Z,20.7
2023-01-18T17:03:31.104Z,20.9
2023-01-18T17:05:31.117Z,20.9
2023-01-18T17:07:31.101Z,20.8
2023-01-18T17:09:34.715Z,20.9
2023-01-18T17:11:53.781Z,20.9
2023-01-18T17:13:31.099Z,21
2023-01-18T17:15:31.078Z,21
2023-01-18T17:17:31.328Z,21.1
2023-01-18T17:19:31.117Z,20.9
2023-01-18T17:21:31.094Z,20.8
2023-01-18T17:23:31.076Z,21.2
2023-01-18T17:25:31.121Z,21.2
2023-01-18T17:27:31.059Z,21.1
2023-01-18T17:29:31.135Z,21
2023-01-18T17:31:31.783Z,21.2
2023-01-18T17:33:31.056Z,21.1
2023-01-18T17:35:31.085Z,21.2
2023-01-18T17:37:31.957Z,21.2
2023-01-18T17:39:37.373Z,21
2023-01-18T17:41:31.067Z,20.9
2023-01-18T17:43:34.088Z,20.9
2023-01-18T17:45:32.460Z,21
2023-01-18T17:47:31.176Z,21.1
2023-01-18T17:49:31.135Z,21.2
2023-01-18T17:51:31.092Z,21.2
2023-01-18T17:53:31.105Z,21.3
2023-01-18T17:55:34.943Z,21.4
2023-01-18T17:57:32.437Z,21.6
2023-01-18T17:59:31.092Z,21.7
2023-01-18T18:01:31.156Z,21.9
2023-01-18T18:03:31.072Z,22.1
2023-01-18T18:05:31.104Z,22
2023-01-18T18:07:31.114Z,22.1
2023-01-18T18:09:31.083Z,22
2023-01-18T18:11:31.037Z,22.2
2023-01-18T18:13:31.021Z,22.3
2023-01-18T18:15:31.093Z,22.5
2023-01-18T18:17:31.157Z,22.5
2023-01-18T18:19:30.990Z,22.2
2023-01-18T18:21:31.060Z,22.1
2023-01-18T18:23:31.032Z,22.1
2023-01-18T18:25:31.080Z,22.1
2023-01-18T18:27:44.624Z,22.1
2023-01-18T18:29:31.032Z,22.2
2023-01-18T18:31:31.113Z,22
2023-01-18T18:33:53.733Z,22.1
2023-01-18T18:35:32.462Z,22.2
2023-01-18T18:37:32.451Z,22.3
2023-01-18T18:39:31.072Z,22.4
2023-01-18T18:41:31.000Z,22.3
2023-01-18T18:43:31.009Z,22.4
2023-01-18T18:45:30.984Z,22.4
2023-01-18T18:47:31.045Z,22.2
2023-01-18T18:49:31.038Z,22.3
2023-01-18T18:51:31.087Z,22.3
2023-01-18T18:53:38.062Z,22.4
2023-01-18T18:55:31.047Z,22.2
2023-01-18T18:57:30.961Z,22.1
2023-01-18T18:59:30.935Z,21.9
2023-01-18T19:01:31.070Z,21.8
2023-01-18T19:03:30.935Z,22
2023-01-18T19:05:30.988Z,22
2023-01-18T19:07:30.967Z,22
2023-01-18T19:09:31.009Z,22
2023-01-18T19:11:30.978Z,22
2023-01-18T19:13:32.486Z,22
2023-01-18T19:15:18.190Z,22
2023-01-18T19:15:37.181Z,22.1
2023-01-18T19:17:31.680Z,22
2023-01-18T19:19:30.981Z,22.2
2023-01-18T19:21:30.938Z,22.4
2023-01-18T19:23:30.989Z,22.5
2023-01-18T19:25:30.946Z,22.4
2023-01-18T19:27:31.034Z,22.5
2023-01-18T19:29:32.192Z,22.6
2023-01-18T19:31:31.002Z,22.6
2023-01-18T19:33:30.995Z,22.5
2023-01-18T19:35:30.923Z,22.7
2023-01-18T19:37:30.934Z,22.7
2023-01-18T19:39:30.945Z,22.7
2023-01-18T19:41:31.049Z,22.8
2023-01-18T19:43:30.954Z,22.6
2023-01-18T19:45:30.962Z,22.6
2023-01-18T19:47:30.958Z,22.7
2023-01-18T19:49:30.945Z,22.6
2023-01-18T19:51:30.946Z,22.4
2023-01-18T19:53:30.942Z,22.6
2023-01-18T19:55:30.895Z,22.5
2023-01-18T19:57:31.025Z,22.5
2023-01-18T19:59:31.125Z,22.5
2023-01-18T20:01:36.628Z,22.4
2023-01-18T20:03:31.874Z,22.4
2023-01-18T20:05:30.926Z,22.4
2023-01-18T20:07:30.921Z,22.3
2023-01-18T20:09:42.283Z,22.4
2023-01-18T20:11:31.263Z,22.4
2023-01-18T20:13:32.273Z,22.4
2023-01-18T20:15:30.949Z,22.4
2023-01-18T20:17:30.937Z,22.4
2023-01-18T20:19:31.279Z,22.3
2023-01-18T20:21:30.872Z,22.3
2023-01-18T20:23:30.910Z,22.4
2023-01-18T20:25:30.981Z,22.5
2023-01-18T20:27:31.414Z,22.2
2023-01-18T20:29:30.903Z,22.3
2023-01-18T20:31:30.948Z,22.3
2023-01-18T20:33:31.663Z,22.2
2023-01-18T20:35:30.935Z,22.2
2023-01-18T20:37:30.967Z,22.1
2023-01-18T20:39:30.931Z,21.9
2023-01-18T20:41:30.836Z,21.7
2023-01-18T20:43:30.874Z,21.7
2023-01-18T20:45:31.980Z,21.7
2023-01-18T20:47:30.899Z,21.6
2023-01-18T20:49:37.992Z,21.5
2023-01-18T20:51:30.857Z,21.4
2023-01-18T20:53:30.825Z,21.5
2023-01-18T20:55:30.842Z,21.5
2023-01-18T20:57:30.840Z,21.2
2023-01-18T20:59:30.856Z,21.2
2023-01-18T21:01:31.011Z,21.1
2023-01-18T21:03:30.853Z,21.1
2023-01-18T21:05:30.968Z,21.1
2023-01-18T21:07:30.933Z,21
2023-01-18T21:09:30.929Z,20.8
2023-01-18T21:11:30.846Z,20.8
2023-01-18T21:13:30.856Z,20.7
2023-01-18T21:15:30.835Z,20.6
2023-01-18T21:17:30.845Z,20.6
2023-01-18T21:19:30.916Z,20.5
2023-01-18T21:21:30.900Z,20.4
2023-01-18T21:23:30.838Z,20.4
2023-01-18T21:25:31.045Z,20.4
2023-01-18T21:27:30.915Z,20.3
2023-01-18T21:29:30.855Z,20.3
2023-01-18T21:31:31.030Z,20.2
2023-01-18T21:33:30.940Z,20.2
2023-01-18T21:35:30.862Z,20.3
2023-01-18T21:37:30.843Z,20.2
2023-01-18T21:39:31.029Z,20.2
2023-01-18T21:41:31.105Z,20.1
2023-01-18T21:43:30.843Z,20
2023-01-18T21:45:30.884Z,20
2023-01-18T21:47:30.860Z,19.9
2023-01-18T21:49:39.742Z,19.9
2023-01-18T21:51:30.966Z,19.8
2023-01-18T21:53:31.094Z,19.7
2023-01-18T21:55:31.225Z,19.7
2023-01-18T21:57:30.832Z,19.6
2023-01-18T21:59:30.965Z,19.5
2023-01-18T22:01:30.833Z,19.4
2023-01-18T22:03:31.240Z,19.3
2023-01-18T22:05:31.123Z,19.3
2023-01-18T22:07:31.067Z,19.2
2023-01-18T22:09:32.700Z,19.1
2023-01-18T22:11:30.903Z,19.1
2023-01-18T22:13:30.911Z,19
2023-01-18T22:15:30.777Z,19
2023-01-18T22:17:30.764Z,18.9
2023-01-18T22:19:30.767Z,18.7
2023-01-18T22:21:32.075Z,18.6
2023-01-18T22:23:30.782Z,18.5
2023-01-18T22:25:30.838Z,18.4
2023-01-18T22:27:30.811Z,18.3
2023-01-18T22:29:30.868Z,18.1
2023-01-18T22:31:30.754Z,18
2023-01-18T22:33:30.778Z,17.9
2023-01-18T22:35:32.809Z,17.8
2023-01-18T22:37:30.780Z,17.7
2023-01-18T22:39:30.838Z,17.5
2023-01-18T22:41:30.773Z,17.4
2023-01-18T22:43:30.830Z,17.2
2023-01-18T22:45:32.357Z,17.2
2023-01-18T22:47:30.920Z,17
2023-01-18T22:49:30.778Z,16.9
2023-01-18T22:51:30.728Z,16.9
2023-01-18T22:53:30.734Z,16.8
2023-01-18T22:55:30.765Z,16.8
2023-01-18T22:57:30.875Z,16.8
2023-01-18T22:59:30.789Z,16.7
2023-01-18T23:01:30.788Z,16.6
2023-01-18T23:03:30.822Z,16.5
2023-01-18T23:05:30.693Z,16.5
2023-01-18T23:07:31.231Z,16.4
2023-01-18T23:09:30.923Z,16.4
2023-01-18T23:11:30.728Z,16.4
2023-01-18T23:13:30.727Z,16.3
2023-01-18T23:15:30.829Z,16.2
2023-01-18T23:17:30.768Z,16.1
2023-01-18T23:19:31.193Z,16
2023-01-18T23:21:30.985Z,15.9
2023-01-18T23:23:30.737Z,15.9
2023-01-18T23:25:30.760Z,15.8
2023-01-18T23:27:30.709Z,15.7
2023-01-18T23:29:30.750Z,15.5
2023-01-18T23:31:30.923Z,15.5
2023-01-18T23:33:30.885Z,15.4
2023-01-18T23:35:30.706Z,15.5
2023-01-18T23:37:30.711Z,15.4
2023-01-18T23:39:30.862Z,15.4
2023-01-18T23:41:30.741Z,15.3
2023-01-18T23:43:30.696Z,15.3
2023-01-18T23:45:30.884Z,15.3
2023-01-18T23:47:30.900Z,15.1
2023-01-18T23:49:30.987Z,15.2
2023-01-18T23:51:30.828Z,15.1
2023-01-18T23:53:30.883Z,15.1
2023-01-18T23:55:30.816Z,15
2023-01-18T23:57:30.705Z,15
2023-01-18T23:59:30.707Z,15
